Time;durP1;ratioP1;P1;durP2;ratioP2;P2;SDS_P1;SDS_P2;PMS_P1;PMS_P2;Temp;Humidity;BMP_temperature;BMP_pressure;BME280_temperature;BME280_humidity;BME280_pressure;Samples;Min_cycle;Max_cycle;Signal;HPM_P1;HPM_P2
2021/07/04 00:00:56;;;;;;;6.30;5.70;;;20.20;1.00;;;;;;5076644;28;20536;-68
2021/07/04 00:03:23;;;;;;;5.27;4.60;;;20.20;1.00;;;;;;5075752;28;20454;-67
2021/07/04 00:05:52;;;;;;;5.83;5.30;;;20.20;1.00;;;;;;5076627;28;20451;-67
2021/07/04 00:08:22;;;;;;;7.63;5.80;;;20.20;99.90;;;;;;5076108;28;20465;-67
2021/07/04 00:10:51;;;;;;;5.60;5.10;;;20.20;1.00;;;;;;5075798;28;20481;-67
2021/07/04 00:13:19;;;;;;;6.60;5.50;;;20.20;1.00;;;;;;5075915;28;20766;-67
2021/07/04 00:15:46;;;;;;;5.40;5.00;;;20.30;1.00;;;;;;5075749;28;20465;-67
2021/07/04 00:18:15;;;;;;;5.80;5.30;;;20.20;1.00;;;;;;5075787;28;20465;-67
2021/07/04 00:20:42;;;;;;;6.27;5.70;;;20.20;99.90;;;;;;5075778;28;20458;-67
2021/07/04 00:23:11;;;;;;;5.70;5.30;;;20.30;99.90;;;;;;5075568;28;20454;-67
2021/07/04 00:25:38;;;;;;;6.27;5.67;;;20.30;1.00;;;;;;5075483;28;20972;-67
2021/07/04 00:28:05;;;;;;;5.67;5.17;;;20.30;1.00;;;;;;5075555;28;20474;-67
2021/07/04 00:30:33;;;;;;;6.30;4.87;;;20.30;1.00;;;;;;5075447;28;20461;-67
2021/07/04 00:33:00;;;;;;;6.10;5.60;;;20.30;1.00;;;;;;5075383;28;20454;-67
2021/07/04 00:35:27;;;;;;;5.93;5.43;;;20.30;1.00;;;;;;5075466;28;20469;-67
2021/07/04 00:37:54;;;;;;;5.87;5.30;;;20.30;1.00;;;;;;5075334;28;20454;-67
2021/07/04 00:40:24;;;;;;;7.00;5.83;;;20.30;1.00;;;;;;5075085;28;20458;-67
2021/07/04 00:42:51;;;;;;;5.90;5.40;;;20.30;1.00;;;;;;5075191;28;20465;-67
2021/07/04 00:45:19;;;;;;;7.03;5.47;;;20.30;1.00;;;;;;5074975;28;20861;-67
2021/07/04 00:47:47;;;;;;;5.80;5.30;;;20.30;1.00;;;;;;5074833;28;20482;-67
2021/07/04 00:50:15;;;;;;;6.40;5.60;;;20.30;1.00;;;;;;5074853;28;20454;-67
2021/07/04 00:52:43;;;;;;;6.20;5.60;;;20.30;1.00;;;;;;5075620;28;20454;-67
2021/07/04 00:55:12;;;;;;;6.63;6.03;;;20.30;43.30;;;;;;5074981;28;20461;-67
2021/07/04 00:57:41;;;;;;;6.83;6.00;;;20.30;99.90;;;;;;5075212;28;20458;-67
2021/07/04 01:00:10;;;;;;;5.70;5.10;;;20.30;99.90;;;;;;5074905;28;20482;-67
2021/07/04 01:02:37;;;;;;;6.70;5.40;;;20.30;30.80;;;;;;5075517;28;20466;-67
2021/07/04 01:05:07;;;;;;;6.27;5.50;;;20.30;99.90;;;;;;5074625;28;20485;-67
2021/07/04 01:07:33;;;;;;;5.80;5.20;;;20.30;99.90;;;;;;5074499;28;20465;-67
2021/07/04 01:10:00;;;;;;;6.97;6.37;;;20.30;99.90;;;;;;5074663;28;20465;-68
2021/07/04 01:12:27;;;;;;;6.80;5.33;;;20.30;99.90;;;;;;5074848;28;20454;-67
2021/07/04 01:14:57;;;;;;;6.40;5.90;;;20.30;99.90;;;;;;5075224;28;20903;-67
2021/07/04 01:17:24;;;;;;;6.03;5.53;;;20.30;99.90;;;;;;5075274;28;20458;-68
2021/07/04 01:19:51;;;;;;;5.97;5.37;;;20.30;99.90;;;;;;5074658;28;20917;-67
2021/07/04 01:22:23;;;;;;;6.97;6.37;;;20.30;99.90;;;;;;5075081;28;20466;-67
2021/07/04 01:24:54;;;;;;;6.13;5.63;;;20.30;99.90;;;;;;5074472;28;20467;-67
2021/07/04 01:27:21;;;;;;;6.83;5.93;;;20.30;1.00;;;;;;5074637;28;20438;-67
2021/07/04 01:29:48;;;;;;;7.30;5.70;;;20.20;1.00;;;;;;5074911;28;20759;-67
2021/07/04 01:32:15;;;;;;;6.10;5.60;;;20.20;1.00;;;;;;5074640;28;20465;-67
2021/07/04 01:34:42;;;;;;;7.87;6.57;;;20.20;1.00;;;;;;5075299;28;20454;-68
2021/07/04 01:37:09;;;;;;;6.23;5.23;;;20.20;1.00;;;;;;5075152;28;20454;-67
2021/07/04 01:39:37;;;;;;;7.40;6.70;;;20.20;1.00;;;;;;5074948;28;20787;-68
2021/07/04 01:42:05;;;;;;;6.80;6.17;;;20.20;1.00;;;;;;5074334;28;20465;-67
2021/07/04 01:44:32;;;;;;;6.40;5.77;;;20.20;1.00;;;;;;5074278;28;20834;-67
2021/07/04 01:46:59;;;;;;;7.40;6.70;;;20.20;1.00;;;;;;5074471;28;20809;-67
2021/07/04 01:49:26;;;;;;;9.90;7.53;;;20.20;1.00;;;;;;5073999;28;20938;-67
2021/07/04 01:51:53;;;;;;;8.77;7.37;;;20.20;1.00;;;;;;5074550;28;20949;-68
2021/07/04 01:54:20;;;;;;;6.63;6.03;;;20.20;1.00;;;;;;5074467;28;20544;-67
2021/07/04 01:56:47;;;;;;;6.70;6.10;;;20.10;8.80;;;;;;5074657;28;20458;-67
2021/07/04 01:59:15;;;;;;;6.53;5.93;;;20.10;69.30;;;;;;5074309;28;20516;-67
2021/07/04 02:01:41;;;;;;;6.13;5.60;;;20.10;95.20;;;;;;5074970;28;20488;-67
2021/07/04 02:04:08;;;;;;;6.97;5.10;;;20.10;99.90;;;;;;5074443;28;20485;-67
2021/07/04 02:06:35;;;;;;;6.60;6.00;;;20.10;99.90;;;;;;5074458;28;20786;-67
2021/07/04 02:09:02;;;;;;;6.53;5.90;;;20.00;99.90;;;;;;5074046;28;20460;-67
2021/07/04 02:11:28;;;;;;;6.80;6.17;;;20.10;99.90;;;;;;5074163;28;20862;-67
2021/07/04 02:13:57;;;;;;;6.73;6.20;;;20.00;99.90;;;;;;5074201;28;20477;-67
2021/07/04 02:16:25;;;;;;;5.93;5.33;;;20.00;99.90;;;;;;5074272;28;20454;-67
2021/07/04 02:18:52;;;;;;;7.23;6.53;;;20.00;99.90;;;;;;5074304;28;20458;-67
2021/07/04 02:21:19;;;;;;;6.50;5.93;;;20.00;99.90;;;;;;5076784;28;20469;-67
2021/07/04 02:23:46;;;;;;;6.37;5.73;;;20.00;99.90;;;;;;5077559;28;20926;-67
2021/07/04 02:26:12;;;;;;;7.20;6.50;;;20.00;99.90;;;;;;5077897;28;20772;-67
2021/07/04 02:28:39;;;;;;;7.23;5.90;;;20.00;99.90;;;;;;5077857;28;20458;-68
2021/07/04 02:31:06;;;;;;;6.10;5.50;;;20.00;99.90;;;;;;5077941;28;20520;-67
2021/07/04 02:33:36;;;;;;;6.10;5.50;;;20.00;99.90;;;;;;5077762;28;20462;-67
2021/07/04 02:36:03;;;;;;;6.60;6.00;;;20.00;99.90;;;;;;5077552;28;20438;-67
2021/07/04 02:38:33;;;;;;;5.70;5.20;;;20.00;99.90;;;;;;5077816;28;20841;-67
2021/07/04 02:40:59;;;;;;;7.20;6.50;;;20.00;99.90;;;;;;5077469;28;20453;-67
2021/07/04 02:43:27;;;;;;;7.33;5.47;;;19.90;99.90;;;;;;5077586;28;20462;-67
2021/07/04 02:45:54;;;;;;;6.47;5.87;;;20.00;1.00;;;;;;5077203;28;20966;-67
2021/07/04 02:48:21;;;;;;;7.13;6.33;;;20.00;1.00;;;;;;5076826;28;20962;-67
2021/07/04 02:50:49;;;;;;;6.90;6.20;;;20.00;99.90;;;;;;5077514;28;20787;-67
2021/07/04 02:53:16;;;;;;;8.80;6.13;;;20.00;99.90;;;;;;5077558;28;20462;-68
2021/07/04 02:55:44;;;;;;;9.33;6.30;;;20.00;1.00;;;;;;5077455;28;20453;-67
2021/07/04 02:58:11;;;;;;;7.00;6.30;;;19.90;1.00;;;;;;5077394;28;20497;-67
2021/07/04 03:00:40;;;;;;;6.37;5.77;;;19.90;1.00;;;;;;5077278;28;20458;-67
2021/07/04 03:03:07;;;;;;;6.13;5.60;;;19.90;1.00;;;;;;5077264;28;20477;-67
2021/07/04 03:05:34;;;;;;;6.67;6.07;;;19.90;1.00;;;;;;5077112;28;20493;-67
2021/07/04 03:08:02;;;;;;;6.70;6.17;;;19.90;1.00;;;;;;5077167;28;20471;-67
2021/07/04 03:10:29;;;;;;;5.90;5.47;;;19.90;1.00;;;;;;5077461;28;20760;-67
2021/07/04 03:12:58;;;;;;;7.20;6.10;;;19.90;1.00;;;;;;5077168;28;20458;-67
2021/07/04 03:15:25;;;;;;;6.67;6.07;;;19.90;1.00;;;;;;5077021;28;20454;-68
2021/07/04 03:17:52;;;;;;;8.43;6.47;;;20.00;1.00;;;;;;5077341;28;20466;-67
2021/07/04 03:20:19;;;;;;;6.80;6.17;;;20.00;1.00;;;;;;5076986;28;20557;-67
2021/07/04 03:22:49;;;;;;;6.47;5.90;;;19.90;1.00;;;;;;5077088;28;20489;-67
2021/07/04 03:25:18;;;;;;;6.77;6.17;;;20.00;1.00;;;;;;5076852;28;20485;-67
2021/07/04 03:27:45;;;;;;;6.93;6.33;;;20.00;1.00;;;;;;5076919;28;20458;-67
2021/07/04 03:30:15;;;;;;;6.63;6.03;;;20.00;1.00;;;;;;5076925;28;20450;-67
2021/07/04 03:32:45;;;;;;;7.73;7.03;;;19.90;1.00;;;;;;5077449;28;20756;-67
2021/07/04 03:35:13;;;;;;;6.23;5.60;;;19.90;1.00;;;;;;5077427;28;20458;-67
2021/07/04 03:37:40;;;;;;;6.60;5.80;;;20.00;1.00;;;;;;5076639;28;20462;-67
2021/07/04 03:40:10;;;;;;;7.67;6.87;;;20.00;1.00;;;;;;5076369;28;20466;-67
2021/07/04 03:42:38;;;;;;;7.97;6.37;;;20.00;1.00;;;;;;5076262;28;20903;-67
2021/07/04 03:45:06;;;;;;;6.83;6.23;;;20.00;1.00;;;;;;5076046;28;20485;-68
2021/07/04 03:47:35;;;;;;;6.70;6.07;;;20.00;1.00;;;;;;5076658;28;20947;-67
2021/07/04 03:50:01;;;;;;;7.10;6.40;;;20.00;1.00;;;;;;5076473;28;20450;-67
2021/07/04 03:52:28;;;;;;;7.33;6.63;;;20.00;1.00;;;;;;5076193;28;20473;-68
2021/07/04 03:54:55;;;;;;;6.60;6.00;;;20.00;1.00;;;;;;5076054;28;20454;-70
2021/07/04 03:57:23;;;;;;;7.10;6.40;;;20.00;1.00;;;;;;5076496;28;20462;-67
2021/07/04 03:59:52;;;;;;;10.43;6.30;;;20.00;1.00;;;;;;5075871;28;20454;-67
2021/07/04 04:02:20;;;;;;;11.10;6.90;;;20.00;1.00;;;;;;5076290;28;20462;-67
2021/07/04 04:04:47;;;;;;;7.60;6.80;;;20.00;1.00;;;;;;5075630;28;20953;-67
2021/07/04 04:07:13;;;;;;;8.00;7.30;;;20.00;1.00;;;;;;5076064;28;20520;-67
2021/07/04 04:09:42;;;;;;;7.90;7.20;;;20.10;1.00;;;;;;5075919;28;20458;-67
2021/07/04 04:12:09;;;;;;;8.27;7.30;;;20.10;1.00;;;;;;5075488;28;20454;-67
2021/07/04 04:14:36;;;;;;;8.67;7.77;;;20.10;1.00;;;;;;5075650;28;20553;-67
2021/07/04 04:17:04;;;;;;;8.40;7.13;;;20.10;1.00;;;;;;5076349;28;20916;-68
2021/07/04 04:19:31;;;;;;;7.47;6.63;;;20.10;1.00;;;;;;5075944;28;20458;-67
2021/07/04 04:21:58;;;;;;;9.30;7.83;;;20.10;1.00;;;;;;5075671;28;20462;-67
2021/07/04 04:24:25;;;;;;;10.37;7.70;;;20.10;1.00;;;;;;5075315;28;20910;-66
2021/07/04 04:26:51;;;;;;;8.10;7.40;;;20.10;1.00;;;;;;5075461;28;20489;-66
2021/07/04 04:29:18;;;;;;;8.20;7.40;;;20.10;1.00;;;;;;5075422;28;20466;-67
2021/07/04 04:31:46;;;;;;;9.47;8.57;;;20.10;1.00;;;;;;5075734;28;20455;-67
2021/07/04 04:34:14;;;;;;;9.47;7.80;;;20.10;1.00;;;;;;5075565;28;20520;-67
2021/07/04 04:36:42;;;;;;;10.00;7.27;;;20.00;1.00;;;;;;5075382;28;20458;-67
2021/07/04 04:39:09;;;;;;;8.93;7.30;;;20.10;1.00;;;;;;5076039;28;20791;-67
2021/07/04 04:41:38;;;;;;;8.00;6.60;;;20.00;1.00;;;;;;5074971;28;20458;-67
2021/07/04 04:44:05;;;;;;;7.63;6.93;;;20.00;1.00;;;;;;5075383;28;20555;-67
2021/07/04 04:46:35;;;;;;;7.07;6.37;;;20.00;1.00;;;;;;5074888;28;20966;-67
2021/07/04 04:49:02;;;;;;;9.30;7.27;;;20.00;1.00;;;;;;5075320;28;20482;-67
2021/07/04 04:51:30;;;;;;;8.23;7.10;;;19.90;1.00;;;;;;5075300;28;20798;-67
2021/07/04 04:53:57;;;;;;;7.60;6.80;;;19.90;1.00;;;;;;5074710;28;20919;-67
2021/07/04 04:56:24;;;;;;;8.33;7.53;;;19.90;1.00;;;;;;5075114;28;20454;-67
2021/07/04 04:58:50;;;;;;;7.33;6.63;;;19.90;1.00;;;;;;5075242;28;20454;-67
2021/07/04 05:01:17;;;;;;;8.47;7.77;;;19.80;1.00;;;;;;5074627;28;20887;-67
2021/07/04 05:03:44;;;;;;;7.50;6.80;;;19.80;1.00;;;;;;5075103;28;20454;-67
2021/07/04 05:06:11;;;;;;;7.47;6.83;;;19.80;1.00;;;;;;5074886;28;20488;-67
2021/07/04 05:08:39;;;;;;;8.10;7.30;;;19.80;1.00;;;;;;5075065;28;20473;-67
2021/07/04 05:11:09;;;;;;;8.60;7.53;;;19.80;1.00;;;;;;5075030;28;20458;-67
2021/07/04 05:13:36;;;;;;;8.67;7.87;;;19.80;1.00;;;;;;5074646;28;20531;-68
2021/07/04 05:16:02;;;;;;;8.60;7.80;;;19.80;1.00;;;;;;5074814;28;20450;-67
2021/07/04 05:18:29;;;;;;;9.20;8.30;;;19.80;1.00;;;;;;5074889;28;20469;-67
2021/07/04 05:20:56;;;;;;;9.03;8.13;;;19.80;1.00;;;;;;5074743;28;20459;-67
2021/07/04 05:23:23;;;;;;;8.50;7.37;;;19.80;1.00;;;;;;5074441;28;20454;-67
2021/07/04 05:25:53;;;;;;;8.13;7.43;;;19.80;1.00;;;;;;5074383;28;20950;-67
2021/07/04 05:28:20;;;;;;;8.20;7.40;;;19.80;1.00;;;;;;5074888;28;20452;-67
2021/07/04 05:30:47;;;;;;;9.23;7.53;;;19.80;1.00;;;;;;5074734;28;20469;-67
2021/07/04 05:33:14;;;;;;;8.97;7.67;;;19.80;1.00;;;;;;5074630;28;20458;-67
2021/07/04 05:35:40;;;;;;;10.77;8.70;;;19.80;1.00;;;;;;5074549;28;20454;-67
2021/07/04 05:38:11;;;;;;;9.30;8.30;;;19.80;1.00;;;;;;5074725;28;20465;-68
2021/07/04 05:40:38;;;;;;;9.77;8.13;;;19.90;1.00;;;;;;5075363;28;20438;-68
2021/07/04 05:43:06;;;;;;;11.73;8.60;;;19.90;1.00;;;;;;5075199;28;20473;-68
2021/07/04 05:45:33;;;;;;;9.23;8.30;;;19.90;1.00;;;;;;5074189;28;20485;-67
2021/07/04 05:48:00;;;;;;;7.93;7.13;;;19.90;1.00;;;;;;5074377;28;20901;-67
2021/07/04 05:50:26;;;;;;;9.33;8.57;;;19.90;1.00;;;;;;5074993;28;20462;-67
2021/07/04 05:52:53;;;;;;;10.40;9.30;;;20.00;1.00;;;;;;5074341;28;20540;-68
2021/07/04 05:55:22;;;;;;;9.13;8.23;;;20.00;1.00;;;;;;5075949;28;20783;-67
2021/07/04 05:57:49;;;;;;;9.07;8.10;;;20.10;1.00;;;;;;5078814;28;20844;-67
2021/07/04 06:00:18;;;;;;;9.53;8.63;;;20.20;1.00;;;;;;5079140;28;20776;-67
2021/07/04 06:02:45;;;;;;;10.77;8.50;;;20.30;1.00;;;;;;5078700;28;20458;-67
2021/07/04 06:05:13;;;;;;;10.50;9.40;;;20.40;1.00;;;;;;5078489;28;20462;-67
2021/07/04 06:07:40;;;;;;;11.37;8.63;;;20.40;1.00;;;;;;5078901;28;20812;-67
2021/07/04 06:10:07;;;;;;;9.90;8.97;;;20.60;1.00;;;;;;5078383;28;20469;-67
2021/07/04 06:12:34;;;;;;;9.23;8.30;;;20.70;1.00;;;;;;5079251;28;20462;-67
2021/07/04 06:15:03;;;;;;;10.80;9.63;;;20.80;1.00;;;;;;5078937;28;20511;-68
2021/07/04 06:17:31;;;;;;;11.23;10.03;;;20.90;1.00;;;;;;5079593;28;20464;-67
2021/07/04 06:19:58;;;;;;;11.20;9.90;;;21.00;1.00;;;;;;5077928;28;20462;-67
2021/07/04 06:22:25;;;;;;;9.67;8.77;;;21.10;1.00;;;;;;5078061;28;20465;-67
2021/07/04 06:24:51;;;;;;;9.50;8.60;;;21.30;99.90;;;;;;5077867;28;20461;-67
2021/07/04 06:27:18;;;;;;;8.10;7.30;;;21.30;99.90;;;;;;5077780;28;20865;-67
2021/07/04 06:29:45;;;;;;;8.27;7.40;;;21.40;99.90;;;;;;5077831;28;20458;-67
2021/07/04 06:32:11;;;;;;;8.20;7.40;;;21.60;99.90;;;;;;5077807;28;20466;-67
2021/07/04 06:34:39;;;;;;;7.97;7.27;;;21.60;99.90;;;;;;5077407;28;20894;-67
2021/07/04 06:37:06;;;;;;;7.33;6.70;;;21.70;1.00;;;;;;5077843;28;20787;-67
2021/07/04 06:39:33;;;;;;;6.90;6.30;;;21.80;1.00;;;;;;5078138;28;20473;-67
2021/07/04 06:42:00;;;;;;;5.87;5.30;;;21.90;1.00;;;;;;5077551;28;20917;-68
2021/07/04 06:44:26;;;;;;;8.17;4.60;;;22.00;99.90;;;;;;5077516;28;20462;-67
2021/07/04 06:46:53;;;;;;;5.90;5.30;;;22.00;1.00;;;;;;5077716;28;20482;-66
2021/07/04 06:49:21;;;;;;;6.63;5.70;;;22.10;1.00;;;;;;5077034;28;20486;-68
2021/07/04 06:51:49;;;;;;;5.70;5.20;;;22.20;1.00;;;;;;5076993;28;20911;-66
2021/07/04 06:54:16;;;;;;;9.03;5.20;;;22.30;1.00;;;;;;5077338;28;20460;-67
2021/07/04 06:56:43;;;;;;;5.70;5.20;;;22.30;1.00;;;;;;5077491;28;20449;-66
2021/07/04 06:59:10;;;;;;;5.17;4.67;;;22.40;1.00;;;;;;5077536;28;20930;-67
2021/07/04 07:01:36;;;;;;;5.03;4.60;;;22.50;1.00;;;;;;5077127;28;20469;-67
2021/07/04 07:04:03;;;;;;;5.70;4.77;;;22.50;99.90;;;;;;5077012;28;20454;-68
2021/07/04 07:06:30;;;;;;;4.40;4.10;;;22.60;99.90;;;;;;5076882;28;20482;-67
2021/07/04 07:08:58;;;;;;;4.50;4.20;;;22.70;99.90;;;;;;5077364;28;20464;-69
2021/07/04 07:11:25;;;;;;;4.30;3.90;;;22.70;99.90;;;;;;5077241;28;20457;-67
2021/07/04 07:13:51;;;;;;;3.87;3.57;;;22.70;99.90;;;;;;5077291;28;20516;-68
2021/07/04 07:16:19;;;;;;;3.50;3.30;;;22.80;99.90;;;;;;5077248;28;20455;-67
2021/07/04 07:18:46;;;;;;;4.10;3.80;;;22.80;99.90;;;;;;5077106;28;20458;-67
2021/07/04 07:21:12;;;;;;;3.90;3.43;;;22.90;99.90;;;;;;5077030;28;20946;-67
2021/07/04 07:23:39;;;;;;;4.40;4.00;;;22.90;99.90;;;;;;5077141;28;20469;-67
2021/07/04 07:26:07;;;;;;;4.10;3.80;;;23.00;99.90;;;;;;5077104;28;20783;-68
2021/07/04 07:28:34;;;;;;;3.70;3.40;;;23.00;99.90;;;;;;5076703;28;20930;-68
2021/07/04 07:31:01;;;;;;;3.77;3.40;;;23.10;99.90;;;;;;5076819;28;20549;-67
2021/07/04 07:33:28;;;;;;;3.53;3.33;;;23.10;99.90;;;;;;5076976;28;20464;-67
2021/07/04 07:35:54;;;;;;;3.83;3.53;;;23.10;99.90;;;;;;5077151;28;20920;-68
2021/07/04 07:38:21;;;;;;;3.67;3.37;;;23.20;99.90;;;;;;5076859;28;20465;-66
2021/07/04 07:40:48;;;;;;;4.50;3.70;;;23.20;92.30;;;;;;5076399;28;20458;-68
2021/07/04 07:43:16;;;;;;;3.57;3.37;;;23.30;92.30;;;;;;5076673;28;20454;-67
2021/07/04 07:45:45;;;;;;;4.30;3.90;;;23.30;99.30;;;;;;5076625;28;20459;-66
2021/07/04 07:48:13;;;;;;;4.23;3.93;;;23.40;97.60;;;;;;5076307;28;20509;-68
2021/07/04 07:50:40;;;;;;;4.00;3.70;;;23.50;88.70;;;;;;5077043;28;20455;-66
2021/07/04 07:53:06;;;;;;;4.03;3.53;;;23.50;70.70;;;;;;5076318;28;20454;-67
2021/07/04 07:55:33;;;;;;;4.20;3.90;;;23.60;65.20;;;;;;5076178;28;20910;-67
2021/07/04 07:58:00;;;;;;;5.33;4.57;;;23.60;79.80;;;;;;5076416;28;20459;-67
2021/07/04 08:00:28;;;;;;;4.20;3.73;;;23.70;79.20;;;;;;5076599;28;20458;-68
2021/07/04 08:02:55;;;;;;;3.70;3.40;;;23.80;66.30;;;;;;5076197;28;20926;-68
2021/07/04 08:05:22;;;;;;;4.20;3.80;;;23.80;66.50;;;;;;5076203;28;20454;-69
2021/07/04 08:07:49;;;;;;;3.97;3.70;;;23.90;58.70;;;;;;5076253;28;20985;-68
2021/07/04 08:10:16;;;;;;;3.77;3.47;;;23.90;35.00;;;;;;5076273;28;20469;-68
2021/07/04 08:12:43;;;;;;;3.53;3.23;;;23.90;27.10;;;;;;5077120;28;20458;-67
2021/07/04 08:15:11;;;;;;;4.33;3.93;;;24.00;14.80;;;;;;5076599;28;20465;-67
2021/07/04 08:17:40;;;;;;;3.70;3.40;;;24.00;9.90;;;;;;5075276;28;20455;-68
2021/07/04 08:20:08;;;;;;;5.07;4.57;;;24.00;8.10;;;;;;5075820;28;20454;-69
2021/07/04 08:22:35;;;;;;;4.60;4.20;;;24.00;1.00;;;;;;5076127;28;20465;-66
2021/07/04 08:25:02;;;;;;;4.17;3.77;;;24.00;1.00;;;;;;5075902;28;20465;-68
2021/07/04 08:27:29;;;;;;;3.97;3.67;;;24.00;1.00;;;;;;5076171;28;20489;-68
2021/07/04 08:29:55;;;;;;;4.40;4.00;;;24.00;1.00;;;;;;5076277;28;20466;-68
2021/07/04 08:32:22;;;;;;;4.77;4.37;;;24.00;1.00;;;;;;5076937;28;20941;-67
2021/07/04 08:34:50;;;;;;;4.63;3.63;;;24.00;1.00;;;;;;5076913;28;20477;-67
2021/07/04 08:37:17;;;;;;;4.70;4.30;;;24.10;1.00;;;;;;5077210;28;20462;-68
2021/07/04 08:39:44;;;;;;;4.00;3.73;;;24.20;1.00;;;;;;5076452;28;20462;-68
2021/07/04 08:42:10;;;;;;;3.83;3.63;;;24.30;1.00;;;;;;5075410;28;20461;-68
2021/07/04 08:44:37;;;;;;;3.73;3.43;;;24.40;1.00;;;;;;5075591;28;20454;-68
2021/07/04 08:47:04;;;;;;;3.90;3.60;;;24.50;1.00;;;;;;5075255;28;20791;-67
2021/07/04 08:49:31;;;;;;;3.87;3.57;;;24.60;1.00;;;;;;5074850;28;20490;-68
2021/07/04 08:51:59;;;;;;;4.87;3.80;;;24.60;1.00;;;;;;5075654;28;20927;-67
2021/07/04 08:54:25;;;;;;;4.23;3.77;;;24.70;1.00;;;;;;5076865;28;20489;-67
2021/07/04 08:56:52;;;;;;;4.13;3.73;;;24.80;1.00;;;;;;5075452;28;20455;-68
2021/07/04 08:59:19;;;;;;;3.87;3.57;;;24.80;1.00;;;;;;5075044;28;20906;-68
2021/07/04 09:01:50;;;;;;;4.50;4.07;;;24.80;1.00;;;;;;5075221;28;20458;-68
2021/07/04 09:04:20;;;;;;;4.00;3.70;;;24.80;1.00;;;;;;5075634;28;20797;-67
2021/07/04 09:06:49;;;;;;;4.80;4.40;;;24.80;1.00;;;;;;5075279;28;20482;-68
2021/07/04 09:09:22;;;;;;;4.30;4.00;;;24.80;1.00;;;;;;5075662;28;20462;-68
2021/07/04 09:12:07;;;;;;;4.43;4.13;;;24.90;1.00;;;;;;5075235;28;20439;-66
2021/07/04 09:14:36;;;;;;;4.50;4.20;;;25.00;1.00;;;;;;5075298;28;20485;-69
2021/07/04 09:17:05;;;;;;;3.97;3.67;;;25.10;1.00;;;;;;5075182;28;20446;-68
2021/07/04 09:19:32;;;;;;;4.50;4.13;;;25.20;1.00;;;;;;5074801;28;20450;-68
2021/07/04 09:22:03;;;;;;;4.60;4.13;;;25.20;1.00;;;;;;5074686;28;20516;-68
2021/07/04 09:24:32;;;;;;;4.30;3.83;;;25.30;1.00;;;;;;5074964;28;20438;-67
2021/07/04 09:27:00;;;;;;;5.30;4.03;;;25.40;1.00;;;;;;5075040;28;20486;-68
2021/07/04 09:29:46;;;;;;;3.70;3.30;;;25.50;1.00;;;;;;5074694;28;20465;-68
2021/07/04 09:32:15;;;;;;;6.80;3.53;;;25.60;1.00;;;;;;5075040;28;20648;-68
2021/07/04 09:34:43;;;;;;;4.43;4.03;;;25.60;1.00;;;;;;5074901;28;20776;-68
2021/07/04 09:37:10;;;;;;;4.80;4.40;;;25.70;1.00;;;;;;5074959;28;20468;-68
2021/07/04 09:39:38;;;;;;;4.00;3.70;;;25.70;1.00;;;;;;5075035;28;20454;-68
2021/07/04 09:42:07;;;;;;;4.27;3.97;;;25.80;1.00;;;;;;5075583;28;20458;-69
2021/07/04 09:44:34;;;;;;;3.93;3.57;;;25.90;1.00;;;;;;5075386;28;20800;-68
2021/07/04 09:47:15;;;;;;;4.90;3.80;;;26.10;1.00;;;;;;5074833;28;20485;-68
2021/07/04 09:49:42;;;;;;;4.57;4.03;;;26.30;1.00;;;;;;5074959;28;20804;-68
2021/07/04 09:52:14;;;;;;;4.43;4.00;;;26.50;1.00;;;;;;5074375;28;20450;-68
2021/07/04 09:54:58;;;;;;;3.53;3.23;;;26.70;1.00;;;;;;5074414;28;20454;-67
2021/07/04 09:57:26;;;;;;;4.30;3.70;;;27.00;1.00;;;;;;5074898;28;20430;-67
2021/07/04 10:00:19;;;;;;;5.20;3.80;;;27.10;1.00;;;;;;5074393;28;20450;-65
2021/07/04 10:03:07;;;;;;;4.20;3.90;;;27.40;1.00;;;;;;5074754;28;20539;-68
2021/07/04 10:05:34;;;;;;;6.23;3.70;;;27.60;1.00;;;;;;5075188;28;20466;-67
2021/07/04 10:08:00;;;;;;;3.57;3.27;;;27.80;1.00;;;;;;5074982;28;20867;-67
2021/07/04 10:10:29;;;;;;;3.70;3.40;;;27.90;1.00;;;;;;5075005;28;20454;-67
2021/07/04 10:12:55;;;;;;;3.50;3.10;;;28.00;1.00;;;;;;5074837;28;20469;-67
2021/07/04 10:15:22;;;;;;;4.40;4.00;;;28.10;1.00;;;;;;5074926;28;20795;-67
2021/07/04 10:17:50;;;;;;;3.97;3.67;;;28.10;1.00;;;;;;5074495;28;20525;-67
2021/07/04 10:20:18;;;;;;;3.87;3.67;;;28.20;1.00;;;;;;5074478;28;20458;-67
2021/07/04 10:22:45;;;;;;;4.50;4.10;;;28.10;1.00;;;;;;5074418;28;20541;-67
2021/07/04 10:25:12;;;;;;;5.07;4.37;;;28.10;1.00;;;;;;5074767;28;20790;-67
2021/07/04 10:27:41;;;;;;;4.10;3.80;;;28.10;1.00;;;;;;5074470;28;20488;-68
2021/07/04 10:30:09;;;;;;;5.30;4.03;;;28.10;1.00;;;;;;5074141;28;20469;-67
2021/07/04 10:32:35;;;;;;;4.60;3.77;;;28.00;1.00;;;;;;5074796;28;20465;-67
2021/07/04 10:35:10;;;;;;;4.97;4.47;;;28.00;1.00;;;;;;5074574;28;20473;-67
2021/07/04 10:37:39;;;;;;;5.47;4.97;;;28.00;1.00;;;;;;5074393;28;20458;-66
2021/07/04 10:40:13;;;;;;;4.10;3.77;;;28.00;1.00;;;;;;5074295;28;20625;-66
2021/07/04 10:42:41;;;;;;;4.27;3.67;;;27.90;1.00;;;;;;5077904;28;20469;-67
2021/07/04 10:45:31;;;;;;;4.73;4.30;;;28.00;1.00;;;;;;5078012;28;20450;-67
2021/07/04 10:47:59;;;;;;;4.50;4.20;;;28.10;1.00;;;;;;5077868;28;20486;-68
2021/07/04 10:50:26;;;;;;;4.33;3.93;;;28.20;1.00;;;;;;5078028;28;20454;-67
2021/07/04 10:52:53;;;;;;;3.83;3.53;;;28.40;1.00;;;;;;5077817;28;20564;-67
2021/07/04 10:55:30;;;;;;;3.93;3.73;;;28.60;1.00;;;;;;5077988;28;20532;-67
2021/07/04 10:58:00;;;;;;;4.30;3.90;;;28.80;1.00;;;;;;5077990;28;20847;-66
2021/07/04 11:00:42;;;;;;;4.60;4.20;;;28.90;1.00;;;;;;5077942;28;20838;-66
2021/07/04 11:03:12;;;;;;;3.70;3.50;;;29.00;1.00;;;;;;5077542;28;20976;-66
2021/07/04 11:05:49;;;;;;;5.50;5.10;;;29.10;1.00;;;;;;5077442;28;20447;-66
2021/07/04 11:08:18;;;;;;;4.53;4.13;;;29.20;1.00;;;;;;5078224;28;20570;-67
2021/07/04 11:11:00;;;;;;;4.63;4.23;;;29.30;1.00;;;;;;5077404;28;20458;-66
2021/07/04 11:13:30;;;;;;;4.60;4.20;;;29.30;1.00;;;;;;5077468;28;20835;-67
2021/07/04 11:16:13;;;;;;;4.00;3.70;;;29.20;1.00;;;;;;5077604;28;20465;-67
2021/07/04 11:18:42;;;;;;;4.27;3.97;;;29.10;1.00;;;;;;5077281;28;20449;-67
2021/07/04 11:21:10;;;;;;;4.17;3.87;;;29.10;1.00;;;;;;5077947;28;20462;-67
2021/07/04 11:23:36;;;;;;;4.50;4.10;;;29.10;1.00;;;;;;5077292;28;20455;-67
2021/07/04 11:26:12;;;;;;;4.27;3.97;;;29.10;1.00;;;;;;5077371;28;20450;-67
2021/07/04 11:28:41;;;;;;;4.67;4.10;;;29.20;1.00;;;;;;5077330;28;20470;-67
2021/07/04 11:31:28;;;;;;;4.37;4.03;;;29.30;1.00;;;;;;5077200;28;20537;-67
2021/07/04 11:33:56;;;;;;;3.90;3.60;;;29.30;1.00;;;;;;5076769;28;20914;-67
2021/07/04 11:36:26;;;;;;;5.13;4.27;;;29.30;1.00;;;;;;5076862;28;20461;-66
2021/07/04 11:38:55;;;;;;;4.43;4.13;;;29.40;1.00;;;;;;5077394;28;20450;-67
2021/07/04 11:41:25;;;;;;;4.27;3.87;;;29.60;1.00;;;;;;5076722;28;20770;-67
2021/07/04 11:43:55;;;;;;;4.73;4.43;;;30.00;1.00;;;;;;5076596;28;20465;-66
2021/07/04 11:46:23;;;;;;;4.30;4.00;;;30.30;1.00;;;;;;5076719;28;20458;-67
2021/07/04 11:48:53;;;;;;;4.77;4.40;;;30.70;1.00;;;;;;5076089;28;20486;-67
2021/07/04 11:51:26;;;;;;;5.10;4.23;;;31.10;1.00;;;;;;5076827;28;20458;-66
2021/07/04 11:53:56;;;;;;;4.33;3.90;;;31.30;1.00;;;;;;5075478;28;20790;-66
2021/07/04 11:56:23;;;;;;;5.03;4.63;;;31.40;1.00;;;;;;5076664;28;20906;-66
2021/07/04 11:58:49;;;;;;;5.00;4.60;;;31.40;1.00;;;;;;5076626;28;20465;-65
2021/07/04 12:01:19;;;;;;;4.40;4.10;;;31.40;1.00;;;;;;5076815;28;20465;-65
2021/07/04 12:03:51;;;;;;;4.27;3.97;;;31.50;1.00;;;;;;5076538;28;20469;-66
2021/07/04 12:06:18;;;;;;;4.57;4.17;;;31.40;1.00;;;;;;5076725;28;20458;-65
2021/07/04 12:08:58;;;;;;;4.63;4.23;;;31.40;1.00;;;;;;5076416;28;20810;-67
2021/07/04 12:11:46;;;;;;;4.27;3.87;;;31.30;1.00;;;;;;5076290;28;20744;-68
2021/07/04 12:14:37;;;;;;;4.07;3.67;;;31.30;1.00;;;;;;5075831;28;20596;-65
2021/07/04 12:17:23;;;;;;;4.40;4.10;;;31.30;1.00;;;;;;5066113;28;20454;-66
2021/07/04 12:20:00;;;;;;;4.30;3.83;;;31.40;1.00;;;;;;5076708;28;20449;-66
2021/07/04 12:22:28;;;;;;;3.80;3.50;;;31.50;1.00;;;;;;5077216;28;20434;-65
2021/07/04 12:24:55;;;;;;;4.10;3.70;;;31.60;1.00;;;;;;5077035;28;20454;-65
2021/07/04 12:27:40;;;;;;;4.50;4.07;;;31.70;1.00;;;;;;5076014;28;20997;-66
2021/07/04 12:30:21;;;;;;;4.27;3.97;;;31.90;1.00;;;;;;5075988;28;20454;-66
2021/07/04 12:32:52;;;;;;;4.87;4.47;;;32.50;1.00;;;;;;5076455;28;20449;-67
2021/07/04 12:35:25;;;;;;;4.40;4.00;;;33.00;1.00;;;;;;5076228;28;20443;-66
2021/07/04 12:37:54;;;;;;;4.60;4.27;;;33.30;1.00;;;;;;5076489;28;20450;-66
2021/07/04 12:40:25;;;;;;;4.20;3.90;;;33.40;1.00;;;;;;5076076;28;20454;-67
2021/07/04 12:42:52;;;;;;;4.47;4.07;;;33.40;1.00;;;;;;5076157;28;20461;-66
2021/07/04 12:45:21;;;;;;;4.30;3.90;;;33.30;1.00;;;;;;5076201;28;20470;-65
2021/07/04 12:48:01;;;;;;;3.73;3.43;;;33.10;1.00;;;;;;5075498;28;20589;-65
2021/07/04 12:50:38;;;;;;;4.73;4.20;;;32.90;1.00;;;;;;5076088;28;20449;-66
2021/07/04 12:53:05;;;;;;;4.90;4.40;;;33.30;1.00;;;;;;5076133;28;20519;-65
2021/07/04 12:55:47;;;;;;;4.60;4.20;;;33.80;1.00;;;;;;5075901;28;20458;-67
2021/07/04 12:58:31;;;;;;;4.10;3.63;;;34.60;1.00;;;;;;5075875;28;20438;-67
2021/07/04 13:01:11;;;;;;;4.10;3.80;;;34.70;1.00;;;;;;5075781;28;20442;-66
2021/07/04 13:03:45;;;;;;;3.50;3.30;;;35.10;1.00;;;;;;5074927;28;20451;-66